Time;durP1;ratioP1;P1;durP2;ratioP2;P2;SDS_P1;SDS_P2;PMS_P1;PMS_P2;Temp;Humidity;BMP_temperature;BMP_pressure;BME280_temperature;BME280_humidity;BME280_pressure;Samples;Min_cycle;Max_cycle;Signal;HPM_P1;HPM_P2
2022/08/22 00:02:34;;;;;;;2.40;2.20;;;19.50;78.90;19.90;96321.00;;;;5133435;27;20671;-84
2022/08/22 00:05:11;;;;;;;2.97;2.73;;;19.50;79.10;19.90;96319.00;;;;5132739;27;20719;-84
2022/08/22 00:07:48;;;;;;;2.63;2.33;;;19.50;79.30;19.90;96318.00;;;;5133528;27;20281;-84
2022/08/22 00:10:24;;;;;;;2.50;2.30;;;19.50;79.00;19.80;96322.00;;;;5133089;27;20218;-84
2022/08/22 00:13:01;;;;;;;3.07;2.80;;;19.50;78.90;19.80;96322.00;;;;5133071;27;20627;-83
2022/08/22 00:15:37;;;;;;;2.40;2.27;;;19.40;78.80;19.80;96321.00;;;;5132816;27;20657;-83
2022/08/22 00:18:16;;;;;;;3.17;2.50;;;19.40;78.80;19.80;96324.00;;;;5133226;27;20290;-84
2022/08/22 00:20:51;;;;;;;2.87;2.67;;;19.40;78.90;19.70;96330.00;;;;5132968;27;20584;-83
2022/08/22 00:23:28;;;;;;;3.33;2.70;;;19.40;79.00;19.70;96326.00;;;;5133068;27;20193;-83
2022/08/22 00:26:03;;;;;;;3.03;2.83;;;19.40;79.20;19.70;96326.00;;;;5132246;27;20633;-84
2022/08/22 00:28:38;;;;;;;2.60;2.40;;;19.30;79.90;19.70;96326.00;;;;5132953;27;20247;-83
2022/08/22 00:31:18;;;;;;;2.90;2.63;;;19.30;79.10;19.70;96331.00;;;;5132521;27;20688;-83
2022/08/22 00:33:55;;;;;;;2.83;2.63;;;19.30;79.00;19.60;96323.00;;;;5132600;27;20239;-83
2022/08/22 00:36:30;;;;;;;3.23;3.03;;;19.30;79.10;19.60;96328.00;;;;5132144;27;20221;-83
2022/08/22 00:39:10;;;;;;;3.10;2.90;;;19.30;79.30;19.60;96319.00;;;;5132563;27;20270;-83
2022/08/22 00:42:40;;;;;;;2.70;2.50;;;19.20;79.20;19.60;96317.00;;;;5132446;27;20185;-83
2022/08/22 00:45:39;;;;;;;2.70;2.50;;;19.30;79.00;19.50;96311.00;;;;5132479;27;20313;-83
2022/08/22 00:49:06;;;;;;;2.70;2.50;;;19.20;79.10;19.50;96324.00;;;;5132374;27;20198;-83
2022/08/22 00:52:13;;;;;;;2.50;2.30;;;19.20;79.00;19.50;96317.00;;;;5048125;28;20653;-83
2022/08/22 00:55:07;;;;;;;2.40;2.20;;;19.10;79.20;19.40;96316.00;;;;5048807;28;20193;-83
2022/08/22 00:58:21;;;;;;;2.80;2.60;;;19.10;79.20;19.40;96313.00;;;;5133032;27;20213;-83
2022/08/22 01:00:55;;;;;;;3.10;2.80;;;19.10;79.40;19.40;96313.00;;;;5115303;27;20242;-83
2022/08/22 01:04:06;;;;;;;2.73;2.53;;;19.10;79.50;19.40;96316.00;;;;5133351;27;20276;-83
2022/08/22 01:06:51;;;;;;;5.17;2.67;;;19.10;79.40;19.40;96320.00;;;;5132435;27;20826;-83
2022/08/22 01:09:36;;;;;;;2.53;2.27;;;19.10;79.60;19.40;96312.00;;;;5133085;27;20214;-83
2022/08/22 01:12:30;;;;;;;3.07;2.73;;;19.10;79.60;19.40;96319.00;;;;5133475;27;20949;-84
2022/08/22 01:15:04;;;;;;;2.70;2.50;;;19.10;79.60;19.40;96315.00;;;;5132005;27;20280;-83
2022/08/22 01:18:22;;;;;;;2.37;2.27;;;19.00;79.70;19.40;96315.00;;;;5132632;27;20222;-83
2022/08/22 01:21:51;;;;;;;2.77;2.57;;;19.00;79.50;19.40;96314.00;;;;5132315;27;20197;-83
2022/08/22 01:25:18;;;;;;;2.73;2.40;;;19.00;79.60;19.40;96318.00;;;;5077356;28;20197;-83
2022/08/22 01:28:23;;;;;;;2.33;2.23;;;19.00;79.90;19.40;96317.00;;;;5132516;28;20654;-84
2022/08/22 01:31:30;;;;;;;3.23;2.60;;;19.00;80.10;19.40;96308.00;;;;5132058;28;20190;-83
2022/08/22 01:34:39;;;;;;;2.57;2.37;;;19.00;80.20;19.40;96312.00;;;;5091185;28;20188;-83
2022/08/22 01:37:47;;;;;;;2.97;2.50;;;19.00;80.00;19.40;96318.00;;;;5091104;28;20776;-83
2022/08/22 01:40:59;;;;;;;2.50;2.30;;;19.10;80.10;19.40;96317.00;;;;5090977;28;20734;-83
2022/08/22 01:43:57;;;;;;;2.80;2.50;;;19.00;80.10;19.40;96312.00;;;;5091313;28;20656;-83
2022/08/22 01:46:46;;;;;;;2.53;2.33;;;19.00;80.10;19.40;96319.00;;;;5090664;28;20267;-83
2022/08/22 01:49:23;;;;;;;2.80;2.60;;;19.00;80.10;19.40;96318.00;;;;5090578;28;20258;-83
2022/08/22 01:52:01;;;;;;;2.50;2.40;;;19.00;80.10;19.40;96321.00;;;;5090999;28;20191;-83
2022/08/22 01:57:06;;;;;;;2.47;2.37;;;19.00;80.30;19.40;96324.00;;;;5073142;28;20212;-85
2022/08/22 01:59:38;;;;;;;2.53;2.33;;;19.00;80.30;19.40;96335.00;;;;5074393;28;20195;-85
2022/08/22 02:02:36;;;;;;;2.70;2.50;;;19.00;80.30;19.40;96334.00;;;;5074409;28;20665;-84
2022/08/22 02:05:18;;;;;;;2.40;2.30;;;19.00;80.40;19.40;96333.00;;;;5074162;28;20246;-85
2022/08/22 02:08:01;;;;;;;3.43;2.77;;;19.00;80.50;19.40;96337.00;;;;5074432;28;20227;-85
2022/08/22 02:10:53;;;;;;;2.67;2.47;;;19.00;80.50;19.40;96332.00;;;;5105392;22;20312;-88
2022/08/22 02:13:41;;;;;;;2.93;2.67;;;19.00;80.40;19.40;96333.00;;;;5095277;28;20204;-88
2022/08/22 02:16:18;;;;;;;2.70;2.50;;;19.00;80.50;19.40;96334.00;;;;5094421;28;20207;-88
2022/08/22 02:19:02;;;;;;;2.83;2.57;;;19.00;80.40;19.40;96327.00;;;;5095215;28;20656;-88
2022/08/22 02:21:46;;;;;;;3.10;2.90;;;19.00;80.30;19.40;96331.00;;;;5095202;28;20555;-87
2022/08/22 02:24:28;;;;;;;3.87;2.97;;;19.00;80.20;19.40;96333.00;;;;5094808;28;20280;-88
2022/08/22 02:27:16;;;;;;;3.43;2.80;;;19.00;80.30;19.40;96336.00;;;;5094514;28;20287;-88
2022/08/22 02:29:53;;;;;;;3.23;2.60;;;19.00;80.40;19.40;96333.00;;;;5094659;28;20309;-88
2022/08/22 02:32:33;;;;;;;2.40;2.20;;;19.00;80.50;19.40;96335.00;;;;5103159;28;20554;-88
2022/08/22 02:35:08;;;;;;;2.67;2.47;;;19.00;80.50;19.40;96331.00;;;;5115028;28;20194;-88
2022/08/22 02:37:47;;;;;;;4.40;2.80;;;19.00;80.50;19.40;96338.00;;;;5115055;28;20604;-87
2022/08/22 02:40:30;;;;;;;2.57;2.37;;;19.00;80.50;19.30;96334.00;;;;5115106;28;20303;-88
2022/08/22 02:43:07;;;;;;;3.27;2.97;;;19.00;80.50;19.30;96338.00;;;;5115197;28;20621;-88
2022/08/22 02:45:46;;;;;;;2.60;2.50;;;19.00;80.70;19.40;96336.00;;;;5114533;28;20230;-88
2022/08/22 02:48:33;;;;;;;3.80;3.00;;;19.00;80.90;19.40;96334.00;;;;5114891;28;20667;-88
2022/08/22 02:51:12;;;;;;;3.27;2.50;;;19.00;80.80;19.40;96334.00;;;;5114554;28;20254;-87
2022/08/22 02:53:51;;;;;;;2.93;2.50;;;19.00;81.00;19.40;96340.00;;;;5114566;28;20652;-87
2022/08/22 02:56:30;;;;;;;2.70;2.50;;;19.00;81.10;19.40;96337.00;;;;5114615;28;20194;-87
2022/08/22 02:59:13;;;;;;;3.20;2.90;;;19.00;81.30;19.40;96345.00;;;;5114772;28;20218;-87
2022/08/22 03:01:44;;;;;;;2.67;2.47;;;19.00;81.40;19.40;96340.00;;;;5114585;28;20285;-87
2022/08/22 03:04:47;;;;;;;3.50;3.20;;;19.00;81.50;19.40;96339.00;;;;5114822;28;20617;-88
2022/08/22 03:07:33;;;;;;;6.13;3.13;;;19.10;81.50;19.50;96344.00;;;;5114518;28;20194;-88
2022/08/22 03:10:16;;;;;;;2.87;2.67;;;19.00;81.70;19.50;96340.00;;;;5114342;28;20255;-88
2022/08/22 03:12:59;;;;;;;3.13;2.93;;;19.10;81.70;19.50;96330.00;;;;5114229;28;20727;-88
2022/08/22 03:15:36;;;;;;;3.13;2.93;;;19.10;81.60;19.50;96340.00;;;;5113949;28;20631;-88
2022/08/22 03:18:18;;;;;;;2.60;2.50;;;19.10;81.40;19.50;96338.00;;;;5114319;28;20218;-88
2022/08/22 03:20:52;;;;;;;3.00;2.80;;;19.10;81.40;19.50;96337.00;;;;5114094;28;20306;-88
2022/08/22 03:23:40;;;;;;;3.03;2.77;;;19.10;81.30;19.50;96343.00;;;;5114296;28;20225;-87
2022/08/22 03:26:17;;;;;;;3.13;2.77;;;19.10;80.90;19.50;96336.00;;;;5113514;28;20306;-88
2022/08/22 03:28:53;;;;;;;3.00;2.50;;;19.10;80.80;19.40;96341.00;;;;5113218;28;20266;-88
2022/08/22 03:31:23;;;;;;;2.83;2.63;;;19.10;80.70;19.40;96337.00;;;;5113881;28;20241;-88
2022/08/22 03:34:23;;;;;;;3.10;2.80;;;19.10;80.50;19.40;96337.00;;;;5094078;28;20184;-88
2022/08/22 03:37:12;;;;;;;2.80;2.60;;;19.10;80.20;19.40;96333.00;;;;5093332;28;20218;-88
2022/08/22 03:39:54;;;;;;;2.93;2.70;;;19.10;80.20;19.40;96339.00;;;;5092450;28;20251;-87
2022/08/22 03:43:03;;;;;;;2.90;2.70;;;19.10;80.20;19.30;96339.00;;;;5093412;28;20262;-88
2022/08/22 03:46:22;;;;;;;2.73;2.53;;;19.00;79.90;19.30;96340.00;;;;5093030;28;20286;-87
2022/08/22 03:49:45;;;;;;;3.53;2.50;;;19.00;79.90;19.30;96342.00;;;;5093322;28;20219;-88
2022/08/22 03:53:05;;;;;;;3.47;3.07;;;19.00;79.90;19.20;96343.00;;;;5091089;28;20212;-88
2022/08/22 03:55:54;;;;;;;2.97;2.77;;;18.90;79.90;19.20;96339.00;;;;5092492;28;20199;-87
2022/08/22 03:59:11;;;;;;;3.20;2.77;;;18.90;80.20;19.20;96342.00;;;;5093076;28;20251;-88
2022/08/22 04:02:24;;;;;;;3.60;3.30;;;18.90;79.90;19.20;96350.00;;;;5083766;28;20227;-88
2022/08/22 04:05:28;;;;;;;2.83;2.63;;;18.90;79.80;19.10;96346.00;;;;5087976;28;20326;-88
2022/08/22 04:08:52;;;;;;;2.93;2.73;;;18.80;79.70;19.10;96354.00;;;;5092919;28;20230;-88
2022/08/22 04:11:52;;;;;;;4.13;2.90;;;18.80;79.60;19.00;96354.00;;;;5067147;28;20234;-88
2022/08/22 04:15:07;;;;;;;3.20;3.00;;;18.80;79.70;19.00;96347.00;;;;5092501;28;20635;-88
2022/08/22 04:18:02;;;;;;;3.40;3.10;;;18.70;79.50;19.00;96346.00;;;;5092235;28;20305;-88
2022/08/22 04:21:20;;;;;;;3.30;3.10;;;18.70;79.80;18.90;96349.00;;;;5092284;28;20246;-88
2022/08/22 04:24:33;;;;;;;3.47;2.47;;;18.70;79.70;18.90;96354.00;;;;5092492;28;20230;-87
2022/08/22 04:27:11;;;;;;;3.23;2.93;;;18.70;79.70;18.90;96350.00;;;;5092597;28;20204;-88
2022/08/22 04:29:49;;;;;;;3.73;3.10;;;18.60;79.70;18.90;96359.00;;;;5092597;28;20324;-87
2022/08/22 04:32:26;;;;;;;3.73;3.43;;;18.60;79.70;18.80;96348.00;;;;5092443;28;20226;-87
2022/08/22 04:35:01;;;;;;;4.00;3.17;;;18.50;79.80;18.80;96347.00;;;;5092303;28;20226;-88
2022/08/22 04:37:38;;;;;;;3.20;3.00;;;18.50;80.00;18.80;96346.00;;;;5091864;28;20710;-87
2022/08/22 04:40:18;;;;;;;3.50;3.07;;;18.50;79.90;18.80;96347.00;;;;5092049;28;20305;-88
2022/08/22 04:42:53;;;;;;;3.63;3.33;;;18.50;79.80;18.70;96351.00;;;;5092260;28;20290;-87
2022/08/22 04:45:26;;;;;;;3.87;3.23;;;18.50;79.80;18.70;96351.00;;;;5092109;28;20198;-88
2022/08/22 04:48:02;;;;;;;3.60;3.30;;;18.40;79.70;18.70;96345.00;;;;5091423;28;20238;-87
2022/08/22 04:50:39;;;;;;;3.47;3.13;;;18.40;79.80;18.70;96349.00;;;;5092093;28;20298;-87
2022/08/22 04:53:23;;;;;;;3.33;2.73;;;18.40;79.80;18.70;96355.00;;;;5091896;28;20203;-88
2022/08/22 04:56:04;;;;;;;3.93;3.53;;;18.40;79.80;18.60;96348.00;;;;5091919;28;20614;-87
2022/08/22 04:58:45;;;;;;;3.50;3.20;;;18.40;79.90;18.60;96361.00;;;;5091717;28;20340;-87
2022/08/22 05:01:20;;;;;;;4.80;3.20;;;18.30;79.90;18.60;96356.00;;;;5091897;28;20207;-87
2022/08/22 05:03:56;;;;;;;3.30;3.10;;;18.30;80.10;18.60;96351.00;;;;5091836;28;20632;-87
2022/08/22 05:06:30;;;;;;;3.70;3.40;;;18.30;80.30;18.60;96353.00;;;;5091714;28;20289;-88
2022/08/22 05:09:03;;;;;;;3.47;3.17;;;18.30;80.50;18.60;96355.00;;;;5091971;28;20262;-88
2022/08/22 05:11:35;;;;;;;3.83;3.60;;;18.30;80.60;18.60;96359.00;;;;5092124;28;20239;-87
2022/08/22 05:14:07;;;;;;;3.37;3.17;;;18.30;80.60;18.60;96360.00;;;;5092451;28;20223;-87
2022/08/22 05:16:40;;;;;;;3.67;3.37;;;18.30;80.70;18.60;96365.00;;;;5091434;28;20245;-87
2022/08/22 05:19:20;;;;;;;3.63;3.33;;;18.30;80.90;18.60;96365.00;;;;5091452;28;20273;-87
2022/08/22 05:21:51;;;;;;;3.40;3.10;;;18.30;81.10;18.60;96360.00;;;;5091609;28;20711;-87
2022/08/22 05:24:25;;;;;;;4.13;3.43;;;18.30;82.00;18.70;96361.00;;;;5091653;28;20279;-87
2022/08/22 05:26:57;;;;;;;4.27;3.90;;;18.30;81.50;18.70;96367.00;;;;5091678;28;20285;-87
2022/08/22 05:29:30;;;;;;;3.70;3.50;;;18.30;81.70;18.80;96361.00;;;;5090758;28;20258;-87
2022/08/22 05:32:02;;;;;;;3.63;3.33;;;18.40;81.90;18.80;96362.00;;;;5086237;28;20661;-87
2022/08/22 05:34:37;;;;;;;4.00;3.70;;;18.40;82.10;18.90;96364.00;;;;5070977;28;20274;-88
2022/08/22 05:37:13;;;;;;;4.67;3.63;;;18.40;82.50;18.90;96369.00;;;;5071515;28;20291;-90
2022/08/22 05:39:47;;;;;;;4.20;3.80;;;18.50;82.90;19.00;96377.00;;;;5071928;28;20227;-90
2022/08/22 05:42:22;;;;;;;3.80;3.50;;;18.50;83.10;19.10;96377.00;;;;5071790;28;20176;-91
2022/08/22 05:44:50;;;;;;;3.93;3.63;;;18.50;83.30;19.20;96377.00;;;;5072320;28;20226;-90
2022/08/22 05:47:23;;;;;;;4.10;3.80;;;18.60;83.50;19.30;96379.00;;;;5071929;28;20265;-91
2022/08/22 05:50:01;;;;;;;3.87;3.57;;;18.70;83.60;19.30;96385.00;;;;5071751;28;20281;-90
2022/08/22 05:52:57;;;;;;;3.60;3.30;;;18.70;83.70;19.40;96385.00;;;;5071312;28;20210;-91
2022/08/22 05:55:31;;;;;;;3.80;3.50;;;18.80;83.80;19.40;96382.00;;;;5071623;28;20207;-92
2022/08/22 05:58:54;;;;;;;3.57;3.27;;;18.80;83.80;19.50;96385.00;;;;5071523;28;20232;-91
2022/08/22 06:01:38;;;;;;;3.93;3.63;;;18.90;84.00;19.60;96383.00;;;;5071776;28;20181;-90
2022/08/22 06:04:15;;;;;;;4.30;4.00;;;19.00;84.10;19.70;96385.00;;;;5071854;28;20278;-91
2022/08/22 06:06:52;;;;;;;3.93;3.57;;;19.10;84.30;19.80;96389.00;;;;5072149;28;20700;-90
2022/08/22 06:09:29;;;;;;;4.00;3.70;;;19.10;84.40;19.90;96382.00;;;;5071233;28;20239;-92
2022/08/22 06:12:05;;;;;;;4.43;4.10;;;19.20;84.60;20.00;96384.00;;;;5071571;28;20206;-90
2022/08/22 06:14:43;;;;;;;4.20;3.90;;;19.30;84.70;20.10;96390.00;;;;5071476;28;20176;-91
2022/08/22 06:17:16;;;;;;;3.87;3.57;;;19.40;84.80;20.20;96398.00;;;;5071559;28;20219;-90
2022/08/22 06:19:48;;;;;;;4.23;3.83;;;19.50;84.90;20.30;96399.00;;;;5071316;28;20289;-91
2022/08/22 06:22:21;;;;;;;4.13;3.83;;;19.60;84.80;20.40;96390.00;;;;5071777;28;20634;-91
2022/08/22 06:24:52;;;;;;;4.27;3.87;;;19.70;84.90;20.60;96389.00;;;;5071512;28;20253;-90
2022/08/22 06:27:25;;;;;;;4.33;4.00;;;19.80;84.90;20.60;96395.00;;;;5071759;28;20231;-91
2022/08/22 06:30:00;;;;;;;4.83;4.43;;;19.90;84.80;20.70;96398.00;;;;5071367;28;20307;-90
2022/08/22 06:32:31;;;;;;;4.10;3.80;;;20.00;84.80;20.80;96399.00;;;;5071091;28;20216;-90
2022/08/22 06:35:03;;;;;;;4.97;4.57;;;20.00;84.70;20.90;96400.00;;;;5071212;28;20213;-90
2022/08/22 06:37:37;;;;;;;3.87;3.57;;;20.10;84.60;20.90;96393.00;;;;5071299;28;20615;-91
2022/08/22 06:40:12;;;;;;;4.80;3.87;;;20.20;84.40;21.00;96389.00;;;;5071101;28;20224;-91
2022/08/22 06:42:44;;;;;;;4.30;3.90;;;20.30;84.10;21.10;96400.00;;;;5074833;28;20283;-91
2022/08/22 06:45:17;;;;;;;4.57;4.17;;;20.40;84.30;21.10;96398.00;;;;5074905;28;20270;-91
2022/08/22 06:47:51;;;;;;;4.20;3.90;;;20.40;84.00;21.20;96400.00;;;;5074854;28;20295;-90
2022/08/22 06:50:26;;;;;;;3.87;3.57;;;20.50;83.80;21.20;96406.00;;;;5074792;28;20259;-91
2022/08/22 06:53:04;;;;;;;3.77;3.57;;;20.60;83.70;21.30;96403.00;;;;5075095;28;20192;-91
2022/08/22 06:55:35;;;;;;;4.30;4.00;;;20.60;83.40;21.30;96406.00;;;;5075175;28;20189;-91
2022/08/22 06:58:07;;;;;;;3.97;3.67;;;20.70;83.20;21.40;96412.00;;;;5074462;28;20550;-92
2022/08/22 07:00:35;;;;;;;4.37;4.07;;;20.70;83.20;21.50;96410.00;;;;5074475;28;20694;-90
2022/08/22 07:03:11;;;;;;;3.97;3.67;;;20.80;83.40;21.60;96405.00;;;;5074550;28;20279;-92
2022/08/22 07:05:42;;;;;;;3.93;3.67;;;20.90;83.40;21.70;96413.00;;;;5074335;28;20276;-92
2022/08/22 07:08:15;;;;;;;3.50;3.30;;;20.90;83.70;21.80;96412.00;;;;5074443;28;20204;-90
2022/08/22 07:10:49;;;;;;;3.50;3.30;;;21.00;83.50;22.00;96414.00;;;;5074449;28;20239;-90
2022/08/22 07:13:19;;;;;;;3.73;3.43;;;21.10;82.80;22.10;96409.00;;;;5074587;28;20171;-90
2022/08/22 07:15:55;;;;;;;3.30;3.10;;;21.20;82.90;22.20;96414.00;;;;5074135;28;20715;-91
2022/08/22 07:18:26;;;;;;;4.00;3.70;;;21.30;82.90;22.30;96416.00;;;;5074111;28;20219;-91
2022/08/22 07:20:56;;;;;;;3.47;3.27;;;21.50;83.30;22.50;96419.00;;;;5074229;28;20233;-91
2022/08/22 07:23:34;;;;;;;3.60;3.30;;;21.60;83.30;22.60;96417.00;;;;5073893;28;20743;-90
2022/08/22 07:26:24;;;;;;;2.90;2.70;;;21.70;82.20;22.70;96413.00;;;;5074331;28;20257;-90
2022/08/22 07:28:56;;;;;;;3.40;3.10;;;21.80;81.40;22.90;96419.00;;;;5074049;28;20251;-91
2022/08/22 07:31:37;;;;;;;4.10;3.80;;;21.90;82.30;22.90;96418.00;;;;5074399;28;20223;-90
2022/08/22 07:34:34;;;;;;;5.03;3.57;;;22.00;81.60;23.10;96420.00;;;;5073634;28;20196;-91
2022/08/22 07:37:07;;;;;;;4.37;3.57;;;22.20;81.60;23.20;96417.00;;;;5074005;28;20564;-90
2022/08/22 07:39:48;;;;;;;4.27;3.40;;;22.20;81.80;23.30;96418.00;;;;5073594;28;20312;-91
2022/08/22 07:42:30;;;;;;;3.77;3.00;;;22.40;81.70;23.50;96420.00;;;;5073604;28;20188;-91
2022/08/22 07:45:10;;;;;;;2.37;2.27;;;22.50;81.40;23.60;96420.00;;;;5073787;28;20537;-91
2022/08/22 07:48:03;;;;;;;3.10;2.03;;;22.60;81.10;23.80;96417.00;;;;5073826;28;20612;-91
2022/08/22 07:50:38;;;;;;;2.13;1.93;;;22.70;78.10;24.00;96417.00;;;;5073622;28;20220;-90
2022/08/22 07:53:15;;;;;;;1.90;1.63;;;22.90;79.90;24.10;96414.00;;;;5072638;28;20199;-91
2022/08/22 07:55:44;;;;;;;2.30;1.40;;;23.00;79.40;24.20;96419.00;;;;5073529;28;20207;-92
2022/08/22 07:58:16;;;;;;;1.90;1.70;;;23.10;79.30;24.30;96411.00;;;;5073555;28;20609;-91
2022/08/22 08:00:47;;;;;;;1.87;1.50;;;23.20;78.80;24.40;96411.00;;;;5073699;28;20232;-91
2022/08/22 08:03:15;;;;;;;2.23;1.70;;;23.30;78.00;24.40;96412.00;;;;5074072;28;20266;-91
2022/08/22 08:05:45;;;;;;;1.80;1.70;;;23.40;77.60;24.50;96409.00;;;;5073954;28;20203;-91
2022/08/22 08:08:23;;;;;;;2.47;1.57;;;23.50;77.20;24.60;96422.00;;;;5074083;28;20220;-91
2022/08/22 08:10:56;;;;;;;2.10;1.60;;;23.60;76.40;24.70;96418.00;;;;5073784;28;20692;-91
2022/08/22 08:13:34;;;;;;;1.50;1.40;;;23.70;76.30;24.90;96417.00;;;;5073108;28;20282;-91
2022/08/22 08:16:02;;;;;;;1.50;1.40;;;23.80;75.70;25.00;96421.00;;;;5073327;28;20204;-90
2022/08/22 08:18:35;;;;;;;2.63;1.27;;;23.90;76.30;25.10;96429.00;;;;5073338;28;20248;-91
2022/08/22 08:21:07;;;;;;;1.47;1.20;;;24.00;72.10;25.30;96428.00;;;;5073417;28;20207;-91
2022/08/22 08:23:41;;;;;;;1.47;1.37;;;24.10;72.30;25.40;96425.00;;;;5073497;28;20212;-91
2022/08/22 08:26:14;;;;;;;2.37;1.80;;;24.30;72.70;25.50;96431.00;;;;5072974;28;20214;-92
2022/08/22 08:28:48;;;;;;;1.93;1.70;;;24.40;73.30;25.60;96431.00;;;;5073119;28;20230;-92
2022/08/22 08:31:23;;;;;;;1.80;1.20;;;24.50;73.10;25.80;96426.00;;;;5072409;28;20289;-91
2022/08/22 08:34:10;;;;;;;2.30;1.43;;;24.60;72.40;25.90;96425.00;;;;5072976;28;20199;-92
2022/08/22 08:36:49;;;;;;;1.30;1.23;;;24.70;72.80;26.00;96421.00;;;;5072925;28;20209;-91
2022/08/22 08:39:29;;;;;;;1.53;1.23;;;24.90;72.30;26.20;96424.00;;;;5072524;28;20254;-92
2022/08/22 08:46:57;;;;;;;1.27;1.17;;;25.10;69.10;26.50;96422.00;;;;5030520;28;20228;-91
2022/08/22 08:49:43;;;;;;;1.00;0.93;;;25.30;68.10;26.60;96416.00;;;;5007195;28;20315;-92
2022/08/22 08:52:48;;;;;;;1.03;0.90;;;25.40;68.20;26.80;96416.00;;;;5071097;28;20707;-92
2022/08/22 08:55:42;;;;;;;2.07;1.20;;;25.60;66.10;26.90;96420.00;;;;5070907;28;20180;-91
2022/08/22 08:58:34;;;;;;;1.90;1.20;;;25.70;68.50;27.10;96426.00;;;;5071245;28;20200;-92
2022/08/22 09:01:24;;;;;;;1.10;1.10;;;25.80;67.80;27.20;96421.00;;;;5070603;28;20688;-91
2022/08/22 09:04:24;;;;;;;1.40;1.20;;;25.90;64.10;27.30;96424.00;;;;5072172;28;20200;-92
2022/08/22 09:07:31;;;;;;;1.50;1.30;;;26.00;62.90;27.40;96424.00;;;;5072886;28;20217;-92
2022/08/22 09:10:22;;;;;;;1.30;1.20;;;26.20;64.20;27.50;96422.00;;;;5072369;28;20654;-91
2022/08/22 09:13:28;;;;;;;1.10;1.00;;;26.30;63.60;27.60;96420.00;;;;5072606;28;20223;-91
2022/08/22 09:16:29;;;;;;;2.33;1.00;;;26.40;65.30;27.80;96428.00;;;;5072289;28;20207;-91
2022/08/22 09:19:48;;;;;;;1.43;1.30;;;26.50;63.80;27.90;96419.00;;;;5072651;28;20669;-91
2022/08/22 09:23:14;;;;;;;1.60;1.30;;;26.60;63.00;28.00;96427.00;;;;5072198;28;20203;-91
2022/08/22 09:25:48;;;;;;;2.40;1.30;;;26.70;61.40;28.00;96426.00;;;;5047913;28;20684;-92
2022/08/22 09:28:29;;;;;;;0.90;0.90;;;26.80;63.80;28.00;96424.00;;;;5072251;28;20210;-94
2022/08/22 09:35:42;;;;;;;1.40;0.90;;;26.90;58.80;28.10;96430.00;;;;5071233;28;20188;-91
2022/08/22 09:38:52;;;;;;;0.83;0.70;;;26.90;60.00;28.20;96423.00;;;;5072542;28;20211;-91
2022/08/22 09:42:00;;;;;;;1.50;0.77;;;27.00;60.20;28.40;96429.00;;;;5071529;28;20642;-92
2022/08/22 09:44:43;;;;;;;0.90;0.80;;;27.10;59.70;28.50;96421.00;;;;5072243;28;20617;-92
2022/08/22 09:47:23;;;;;;;2.53;1.10;;;27.20;59.70;28.70;96422.00;;;;5072199;28;20287;-92
2022/08/22 09:50:11;;;;;;;1.20;0.90;;;27.30;58.50;28.80;96420.00;;;;5072275;28;20227;-92
2022/08/22 09:53:04;;;;;;;0.80;0.80;;;27.40;59.40;29.00;96427.00;;;;5072363;28;20196;-92
2022/08/22 09:55:47;;;;;;;0.60;0.57;;;27.50;57.90;29.20;96419.00;;;;5072439;28;20207;-91
2022/08/22 09:58:32;;;;;;;0.73;0.68;;;27.60;58.00;29.40;96427.00;;;;5072169;28;20257;-94
2022/08/22 10:01:10;;;;;;;1.30;0.93;;;27.80;58.40;29.60;96416.00;;;;5072726;28;20192;-92
2022/08/22 10:04:39;;;;;;;1.50;0.87;;;27.90;59.50;29.80;96422.00;;;;5072394;28;20222;-92
2022/08/22 10:07:40;;;;;;;3.00;0.77;;;28.10;56.20;29.90;96434.00;;;;5035665;28;20649;-91
2022/08/22 10:10:28;;;;;;;1.35;0.70;;;28.20;58.80;30.10;96422.00;;;;5071826;28;20234;-91
2022/08/22 10:13:10;;;;;;;1.67;0.85;;;28.40;58.50;30.30;96427.00;;;;5072408;28;20180;-91
2022/08/22 10:15:43;;;;;;;1.75;0.90;;;28.50;57.20;30.40;96431.00;;;;5072427;28;20203;-93
2022/08/22 10:18:33;;;;;;;0.73;0.60;;;28.70;56.90;30.50;96428.00;;;;5076371;28;20207;-92
2022/08/22 10:21:11;;;;;;;1.00;0.70;;;28.80;55.70;30.50;96425.00;;;;5075723;28;20242;-91
2022/08/22 10:23:49;;;;;;;1.33;1.00;;;29.00;55.50;30.50;96426.00;;;;5075523;28;20721;-91
2022/08/22 10:26:31;;;;;;;1.90;0.95;;;29.10;55.10;30.40;96429.00;;;;5075027;28;20200;-90
2022/08/22 10:29:24;;;;;;;2.50;0.80;;;29.10;53.50;30.40;96428.00;;;;5074967;28;20645;-91
2022/08/22 10:31:59;;;;;;;1.08;0.55;;;29.20;54.20;30.40;96425.00;;;;5075278;28;20211;-94
2022/08/22 10:34:35;;;;;;;0.70;0.70;;;29.20;53.50;30.40;96427.00;;;;5075003;28;20218;-92
2022/08/22 10:37:18;;;;;;;0.85;0.43;;;29.30;53.10;30.40;96430.00;;;;5075410;28;20233;-92
2022/08/22 10:39:57;;;;;;;0.88;0.70;;;29.40;52.90;30.50;96425.00;;;;5075522;28;20219;-93
2022/08/22 10:42:31;;;;;;;1.63;0.60;;;29.50;52.40;30.60;96430.00;;;;5074859;28;20233;-92
2022/08/22 10:45:22;;;;;;;0.93;0.60;;;29.60;52.40;30.60;96433.00;;;;5075121;28;20203;-92
2022/08/22 10:48:30;;;;;;;0.70;0.60;;;29.60;51.10;30.70;96433.00;;;;5075071;28;20569;-92
2022/08/22 10:51:23;;;;;;;0.65;0.63;;;29.80;52.00;30.80;96419.00;;;;5069903;28;20262;-92
2022/08/22 10:54:22;;;;;;;1.85;0.80;;;29.90;52.50;30.80;96422.00;;;;5074793;28;20204;-92
2022/08/22 10:57:02;;;;;;;1.38;0.60;;;30.00;51.20;30.70;96429.00;;;;5074150;28;20680;-90
2022/08/22 10:59:43;;;;;;;0.95;0.57;;;29.90;51.60;30.60;96433.00;;;;5075134;28;20286;-92
2022/08/22 11:02:53;;;;;;;0.80;0.60;;;29.90;50.30;30.50;96426.00;;;;5075485;28;20228;-92
2022/08/22 11:05:40;;;;;;;0.68;0.60;;;29.90;48.50;30.40;96425.00;;;;5068914;28;20263;-91
2022/08/22 11:08:51;;;;;;;0.45;0.45;;;29.80;48.90;30.20;96433.00;;;;5078521;28;20260;-91
2022/08/22 11:11:52;;;;;;;0.95;0.73;;;29.70;48.50;30.00;96436.00;;;;5079139;28;20199;-92
2022/08/22 11:14:51;;;;;;;0.70;0.68;;;29.60;49.10;29.80;96434.00;;;;5075884;28;20215;-92
2022/08/22 11:17:53;;;;;;;0.90;0.60;;;29.40;48.90;29.60;96422.00;;;;5075897;28;20696;-92
2022/08/22 11:20:33;;;;;;;1.15;0.60;;;29.20;49.80;29.40;96417.00;;;;5076154;28;20223;-92
2022/08/22 11:23:25;;;;;;;0.60;0.60;;;29.10;50.20;29.30;96424.00;;;;5076280;28;20670;-92
2022/08/22 11:26:07;;;;;;;1.05;0.88;;;28.90;48.90;29.20;96429.00;;;;5076074;28;20242;-91
2022/08/22 11:29:01;;;;;;;0.63;0.60;;;28.80;48.60;29.00;96431.00;;;;5074725;28;20265;-91
2022/08/22 11:31:48;;;;;;;0.57;0.57;;;28.60;47.70;28.90;96437.00;;;;5076009;28;20584;-92
2022/08/22 11:34:37;;;;;;;1.60;0.60;;;28.50;48.80;28.80;96428.00;;;;5074485;28;20577;-92
2022/08/22 11:37:13;;;;;;;0.60;0.60;;;28.30;48.50;28.70;96425.00;;;;5074652;28;20362;-91
2022/08/22 11:39:49;;;;;;;0.80;0.80;;;28.20;49.60;28.60;96430.00;;;;5074433;28;20307;-92
2022/08/22 11:42:30;;;;;;;0.50;0.50;;;28.10;49.50;28.50;96431.00;;;;5074093;28;20188;-88
2022/08/22 11:45:04;;;;;;;1.10;0.80;;;28.00;49.30;28.40;96424.00;;;;5073698;28;20283;-90
2022/08/22 11:47:44;;;;;;;1.37;0.70;;;27.90;49.20;28.30;96426.00;;;;5074223;28;20176;-90
2022/08/22 11:50:28;;;;;;;1.50;1.00;;;27.80;49.70;28.20;96418.00;;;;5073910;28;20306;-90
2022/08/22 11:53:18;;;;;;;2.07;0.87;;;27.80;50.40;28.20;96423.00;;;;5076597;28;20180;-91
2022/08/22 11:56:01;;;;;;;1.77;0.97;;;27.70;50.50;28.20;96429.00;;;;5074170;28;20196;-90
2022/08/22 11:58:52;;;;;;;0.80;0.80;;;27.60;49.70;28.20;96428.00;;;;5073728;28;20199;-91
2022/08/22 12:01:27;;;;;;;1.03;0.60;;;27.60;49.60;28.20;96422.00;;;;5073700;28;20688;-91
2022/08/22 12:04:11;;;;;;;1.97;0.70;;;27.50;50.70;28.20;96413.00;;;;5073492;28;20195;-91
2022/08/22 12:07:01;;;;;;;2.20;1.00;;;27.50;51.20;28.20;96419.00;;;;5073916;28;20258;-91
2022/08/22 12:09:50;;;;;;;0.90;0.90;;;27.50;50.80;28.20;96418.00;;;;5073495;28;20752;-91
2022/08/22 12:12:52;;;;;;;0.90;0.80;;;27.50;51.20;28.20;96428.00;;;;5073559;28;20254;-93
2022/08/22 12:15:23;;;;;;;2.40;0.93;;;27.50;50.70;28.10;96415.00;;;;5073373;28;20253;-91
2022/08/22 12:18:28;;;;;;;1.93;0.90;;;27.50;51.50;28.10;96411.00;;;;5073993;28;20227;-91
2022/08/22 12:21:46;;;;;;;0.90;0.60;;;27.40;49.80;28.10;96413.00;;;;5071354;28;20631;-91
2022/08/22 12:24:43;;;;;;;1.30;0.80;;;27.40;51.20;28.10;96410.00;;;;5073272;28;20275;-90
2022/08/22 12:27:49;;;;;;;0.70;0.50;;;27.40;49.00;28.00;96417.00;;;;5073504;28;20291;-91